Bergondo, Spain
Current Conditions -  °F | °C
As of 1:00 PM on Thursday 23 Oct 2014 (Local Time) from LECO Reporting Station
Clear Clear  
Wind Chill: 70°   Ceiling: Unl
Heat Index: 70°   Visibility: 6mi
Dew Point: 55°   Wind: 3mph
Humidity: 60%   Direction: 170°S
Pressure: 30.27"   Gusts: NA
Location:  43.32°N, 8.23°W
Report Text: LECO 231100Z 17003KT 140V200 CAVOK 21/13 Q1025 NOSIG
Loading
Personal Weather Stations






























Interactive Weather Map
Tropical Storm Tracking
New forecast layout! Learn more

10-Day Weather Forecast

Advertisements
Track Severe Weather on mobile